Star Planet — V2OE9 — position and weather

sailwx.info

Track history (hours):
 
Tides and Currents Weather Stations Pressure Air Temp Water Temp Dewpoint Dewpoint Depression Visibility Wind Speed Wind Dir Waves Ship Positions

Star Planet

Last reported at 2017-Dec-11 17:00 UTC. Time now 2017-Dec-13 07:31 UTC.
Position N 34°37' E 135°02'.

Length 132 m; draft 5.7 m.

Type: Ship (hazmat cat A). MMSI: 304427000.

Date/timePositionNaut miles runAvg speedWind from/ knotsBaromVisibWave heightAir tempDewpointWater temp
2017-Dec-11 17:00N 34°37' E 135°02'5 9.9
2017-Dec-11 16:30N 34°36' E 135°07'510.6
2017-Dec-11 16:00N 34°36' E 135°14'4 7.5
2017-Dec-11 15:31N 34°40' E 135°14'0 0.5
2017-Dec-11 15:00N 34°40' E 135°14'0 0.0
2017-Dec-11 14:30N 34°40' E 135°14'0 0.1
2017-Dec-11 14:00N 34°40' E 135°14'0 0.1
2017-Dec-11 13:30N 34°40' E 135°14'0 0.0
2017-Dec-11 13:00N 34°40' E 135°14'0 0.1
2017-Dec-11 12:30N 34°40' E 135°14'0 0.0
2017-Dec-11 12:00N 34°40' E 135°14'0 0.1
2017-Dec-11 11:30N 34°40' E 135°14'2 3.6
2017-Dec-11 11:01N 34°39' E 135°16'5 9.7
2017-Dec-11 10:30N 34°37' E 135°21'3 5.2
2017-Dec-11 10:00N 34°39' E 135°24'0 0.0
2017-Dec-11 09:30N 34°39' E 135°24'0 0.0
2017-Dec-11 09:00N 34°39' E 135°24'0 0.0
2017-Dec-11 08:30N 34°39' E 135°24'0 0.1
2017-Dec-11 08:01N 34°39' E 135°24'3 5.5
2017-Dec-11 07:30N 34°37' E 135°21'713.6
2017-Dec-11 07:00N 34°35' E 135°13'714.2
2017-Dec-11 06:30N 34°35' E 135°05'611.7
2017-Dec-11 06:01N 34°37' E 134°58'713.1
2017-Dec-11 05:30N 34°34' E 134°51'713.3
2017-Dec-11 05:00N 34°31' E 134°43'713.5
2017-Dec-11 04:30N 34°29' E 134°36'713.5
2017-Dec-11 04:00N 34°26' E 134°28'713.4
2017-Dec-11 03:30N 34°24' E 134°21'8112.5
2017-Dec-10 21:00N 34°01' E 132°46'713.7
2017-Dec-10 20:28N 33°56' E 132°40'613.8
2017-Dec-10 20:00N 33°51' E 132°35'1513.8
2017-Dec-10 18:53N 33°44' E 132°18'1514.0
2017-Dec-10 17:49N 33°42' E 132°00'414.3
2017-Dec-10 17:31N 33°43' E 131°55'714.0
2017-Dec-10 17:00N 33°45' E 131°47'713.9
2017-Dec-10 16:30N 33°46' E 131°39'713.9
2017-Dec-10 16:00N 33°48' E 131°30'713.8
2017-Dec-10 15:31N 33°49' E 131°22'713.6
2017-Dec-10 15:01N 33°51' E 131°15'713.7
2017-Dec-10 14:30N 33°54' E 131°07'713.9
2017-Dec-10 14:01N 33°58' E 131°01'510.9
2017-Dec-10 13:30N 33°55' E 130°56'611.1
2017-Dec-10 13:00N 33°58' E 130°50'612.5
2017-Dec-10 12:30N 34°02' E 130°45'816.8
2017-Dec-10 12:00N 34°02' E 130°35'917.0
2017-Dec-10 11:30N 34°02' E 130°24'917.0
2017-Dec-10 11:00N 34°02' E 130°14'816.9
2017-Dec-10 10:30N 34°02' E 130°04'917.1
2017-Dec-10 10:00N 34°01' E 129°53'43514.2
2017-Dec-09 03:20N 37°45' E 122°13'0 0.6
2017-Dec-09 02:57N 37°45' E 122°13'3 7.8
2017-Dec-09 02:31N 37°45' E 122°09'815.7
2017-Dec-09 02:01N 37°47' E 121°59'816.8
2017-Dec-09 01:31N 37°50' E 121°49'817.0
2017-Dec-09 01:01N 37°52' E 121°39'917.0
2017-Dec-09 00:30N 37°54' E 121°28'817.0
2017-Dec-09 00:00N 37°54' E 121°17'917.0
2017-Dec-08 23:30N 37°57' E 121°07'5215.4
2017-Dec-08 20:09N 37°52' E 120°02'2316.6
2017-Dec-08 18:46N 37°37' E 119°40'  
2017-Dec-02 13:20N 34°01' E 129°55'513.9
2017-Dec-02 13:00N 34°01' E 130°01'714.0
2017-Dec-02 12:31N 34°01' E 130°09'714.1
2017-Dec-02 12:00N 34°02' E 130°18'714.3
2017-Dec-02 11:30N 34°02' E 130°26'714.5
2017-Dec-02 11:00N 34°02' E 130°35'815.0
2017-Dec-02 10:31N 34°03' E 130°44'714.4
2017-Dec-02 10:01N 34°00' E 130°52'612.0
2017-Dec-02 09:30N 33°54' E 130°55'612.0
2017-Dec-02 09:00N 33°59' E 130°60'713.5
2017-Dec-02 08:30N 33°55' E 131°06'815.3
2017-Dec-02 08:00N 33°51' E 131°15'815.6
2017-Dec-02 07:30N 33°50' E 131°24'815.3
2017-Dec-02 07:00N 33°48' E 131°33'815.5
2017-Dec-02 06:30N 33°46' E 131°42'814.7
2017-Dec-02 06:00N 33°40' E 131°47'715.0
2017-Dec-02 05:30N 33°34' E 131°51'814.5
2017-Dec-02 04:57N 33°26' E 131°55'614.2
2017-Dec-02 04:30N 33°21' E 131°59'7411.0
2017-Dec-01 21:48N 32°44' E 133°15'  
Track history (hours):
 
Tides and Currents Weather Stations Pressure Air Temp Water Temp Dewpoint Dewpoint Depression Visibility Wind Speed Wind Dir Waves Ship Positions

Star Planet

Last reported at 2017-Dec-11 17:00 UTC. Time now 2017-Dec-13 07:31 UTC.
Position N 34°37' E 135°02'.

Length 132 m; draft 5.7 m.

Type: Ship (hazmat cat A). MMSI: 304427000.

Date/timePositionNaut miles runAvg speedWind from/ knotsBaromVisibWave heightAir tempDewpointWater temp
2017-Dec-11 17:00N 34°37' E 135°02'5 9.9
2017-Dec-11 16:30N 34°36' E 135°07'510.6
2017-Dec-11 16:00N 34°36' E 135°14'4 7.5
2017-Dec-11 15:31N 34°40' E 135°14'0 0.5
2017-Dec-11 15:00N 34°40' E 135°14'0 0.0
2017-Dec-11 14:30N 34°40' E 135°14'0 0.1
2017-Dec-11 14:00N 34°40' E 135°14'0 0.1
2017-Dec-11 13:30N 34°40' E 135°14'0 0.0
2017-Dec-11 13:00N 34°40' E 135°14'0 0.1
2017-Dec-11 12:30N 34°40' E 135°14'0 0.0
2017-Dec-11 12:00N 34°40' E 135°14'0 0.1
2017-Dec-11 11:30N 34°40' E 135°14'2 3.6
2017-Dec-11 11:01N 34°39' E 135°16'5 9.7
2017-Dec-11 10:30N 34°37' E 135°21'3 5.2
2017-Dec-11 10:00N 34°39' E 135°24'0 0.0
2017-Dec-11 09:30N 34°39' E 135°24'0 0.0
2017-Dec-11 09:00N 34°39' E 135°24'0 0.0
2017-Dec-11 08:30N 34°39' E 135°24'0 0.1
2017-Dec-11 08:01N 34°39' E 135°24'3 5.5
2017-Dec-11 07:30N 34°37' E 135°21'713.6
2017-Dec-11 07:00N 34°35' E 135°13'714.2
2017-Dec-11 06:30N 34°35' E 135°05'611.7
2017-Dec-11 06:01N 34°37' E 134°58'713.1
2017-Dec-11 05:30N 34°34' E 134°51'713.3
2017-Dec-11 05:00N 34°31' E 134°43'713.5
2017-Dec-11 04:30N 34°29' E 134°36'713.5
2017-Dec-11 04:00N 34°26' E 134°28'713.4
2017-Dec-11 03:30N 34°24' E 134°21'8112.5
2017-Dec-10 21:00N 34°01' E 132°46'713.7
2017-Dec-10 20:28N 33°56' E 132°40'613.8
2017-Dec-10 20:00N 33°51' E 132°35'1513.8
2017-Dec-10 18:53N 33°44' E 132°18'1514.0
2017-Dec-10 17:49N 33°42' E 132°00'414.3
2017-Dec-10 17:31N 33°43' E 131°55'714.0
2017-Dec-10 17:00N 33°45' E 131°47'713.9
2017-Dec-10 16:30N 33°46' E 131°39'713.9
2017-Dec-10 16:00N 33°48' E 131°30'713.8
2017-Dec-10 15:31N 33°49' E 131°22'713.6
2017-Dec-10 15:01N 33°51' E 131°15'713.7
2017-Dec-10 14:30N 33°54' E 131°07'713.9
2017-Dec-10 14:01N 33°58' E 131°01'510.9
2017-Dec-10 13:30N 33°55' E 130°56'611.1
2017-Dec-10 13:00N 33°58' E 130°50'612.5
2017-Dec-10 12:30N 34°02' E 130°45'816.8
2017-Dec-10 12:00N 34°02' E 130°35'917.0
2017-Dec-10 11:30N 34°02' E 130°24'917.0
2017-Dec-10 11:00N 34°02' E 130°14'816.9
2017-Dec-10 10:30N 34°02' E 130°04'917.1
2017-Dec-10 10:00N 34°01' E 129°53'43514.2
2017-Dec-09 03:20N 37°45' E 122°13'0 0.6
2017-Dec-09 02:57N 37°45' E 122°13'3 7.8
2017-Dec-09 02:31N 37°45' E 122°09'815.7
2017-Dec-09 02:01N 37°47' E 121°59'816.8
2017-Dec-09 01:31N 37°50' E 121°49'817.0
2017-Dec-09 01:01N 37°52' E 121°39'917.0
2017-Dec-09 00:30N 37°54' E 121°28'817.0
2017-Dec-09 00:00N 37°54' E 121°17'917.0
2017-Dec-08 23:30N 37°57' E 121°07'5215.4
2017-Dec-08 20:09N 37°52' E 120°02'2316.6
2017-Dec-08 18:46N 37°37' E 119°40'  
2017-Dec-02 13:20N 34°01' E 129°55'513.9
2017-Dec-02 13:00N 34°01' E 130°01'714.0
2017-Dec-02 12:31N 34°01' E 130°09'714.1
2017-Dec-02 12:00N 34°02' E 130°18'714.3
2017-Dec-02 11:30N 34°02' E 130°26'714.5
2017-Dec-02 11:00N 34°02' E 130°35'815.0
2017-Dec-02 10:31N 34°03' E 130°44'714.4
2017-Dec-02 10:01N 34°00' E 130°52'612.0
2017-Dec-02 09:30N 33°54' E 130°55'612.0
2017-Dec-02 09:00N 33°59' E 130°60'713.5
2017-Dec-02 08:30N 33°55' E 131°06'815.3
2017-Dec-02 08:00N 33°51' E 131°15'815.6
2017-Dec-02 07:30N 33°50' E 131°24'815.3
2017-Dec-02 07:00N 33°48' E 131°33'815.5
2017-Dec-02 06:30N 33°46' E 131°42'814.7
2017-Dec-02 06:00N 33°40' E 131°47'715.0
2017-Dec-02 05:30N 33°34' E 131°51'814.5
2017-Dec-02 04:57N 33°26' E 131°55'614.2
2017-Dec-02 04:30N 33°21' E 131°59'7411.0
2017-Dec-01 21:48N 32°44' E 133°15'  

Dump ship's entire track history